Time;durP1;ratioP1;P1;durP2;ratioP2;P2;SDS_P1;SDS_P2;PMS_P1;PMS_P2;Temp;Humidity;BMP_temperature;BMP_pressure;BME280_temperature;BME280_humidity;BME280_pressure;Samples;Min_cycle;Max_cycle;Signal;HPM_P1;HPM_P2
2023/11/12 00:02:10;;;;;;;4.10;2.70;;;;;;;;;;4813763;29;20232;-84
2023/11/12 00:05:14;;;;;;;5.90;2.50;;;;;;;;;;4823080;29;20185;-84
2023/11/12 00:08:18;;;;;;;3.70;2.77;;;;;;;;;;4813064;29;20189;-84
2023/11/12 00:11:23;;;;;;;5.13;2.67;;;;;;;;;;4812982;29;20639;-84
2023/11/12 00:14:27;;;;;;;4.33;2.73;;;;;;;;;;4822287;29;20225;-84
2023/11/12 00:17:31;;;;;;;3.50;2.87;;;;;;;;;;4812891;29;20196;-84
2023/11/12 00:20:35;;;;;;;4.57;2.70;;;;;;;;;;4812419;29;20192;-84
2023/11/12 00:23:39;;;;;;;3.00;2.37;;;;;;;;;;4812097;29;20189;-84
2023/11/12 00:26:43;;;;;;;2.83;2.47;;;;;;;;;;4812783;29;20193;-84
2023/11/12 00:29:47;;;;;;;3.37;2.60;;;;;;;;;;4812355;29;20554;-84
2023/11/12 00:32:52;;;;;;;4.10;2.50;;;;;;;;;;4812244;29;20240;-83
2023/11/12 00:35:56;;;;;;;2.63;2.30;;;;;;;;;;4812341;29;20193;-84
2023/11/12 00:39:01;;;;;;;3.03;2.47;;;;;;;;;;4822626;29;20201;-84
2023/11/12 00:42:05;;;;;;;2.80;2.50;;;;;;;;;;4811245;29;20224;-84
2023/11/12 00:45:09;;;;;;;2.97;2.00;;;;;;;;;;4822330;29;20193;-84
2023/11/12 00:48:13;;;;;;;3.20;2.43;;;;;;;;;;4821852;29;20193;-84
2023/11/12 00:51:17;;;;;;;2.90;2.50;;;;;;;;;;4823607;29;20193;-83
2023/11/12 00:54:22;;;;;;;4.20;2.50;;;;;;;;;;4816897;29;20587;-83
2023/11/12 00:57:26;;;;;;;2.97;2.50;;;;;;;;;;4816460;29;20196;-83
2023/11/12 01:00:31;;;;;;;2.50;2.30;;;;;;;;;;4826747;29;20197;-83
2023/11/12 01:03:35;;;;;;;3.80;2.40;;;;;;;;;;4816405;29;20181;-83
2023/11/12 01:06:39;;;;;;;3.07;2.60;;;;;;;;;;4826370;29;20555;-83
2023/11/12 01:09:44;;;;;;;3.00;2.50;;;;;;;;;;4826704;29;20197;-83
2023/11/12 01:12:49;;;;;;;3.33;2.10;;;;;;;;;;4817996;29;20228;-83
2023/11/12 01:15:53;;;;;;;3.83;2.70;;;;;;;;;;4827132;29;20197;-83
2023/11/12 01:19:00;;;;;;;3.00;2.67;;;;;;;;;;4817413;29;20201;-83
2023/11/12 01:22:05;;;;;;;3.23;2.50;;;;;;;;;;4815778;29;20232;-83
2023/11/12 01:25:12;;;;;;;4.20;2.07;;;;;;;;;;4816016;29;20533;-83
2023/11/12 01:28:16;;;;;;;2.67;2.03;;;;;;;;;;4816382;29;20544;-82
2023/11/12 01:31:22;;;;;;;4.23;2.53;;;;;;;;;;4825642;29;20201;-83
2023/11/12 01:34:27;;;;;;;6.07;2.43;;;;;;;;;;4815920;29;20221;-83
2023/11/12 01:37:31;;;;;;;2.50;2.30;;;;;;;;;;4816024;29;20185;-83
2023/11/12 01:40:39;;;;;;;2.47;2.23;;;;;;;;;;4816472;29;20197;-83
2023/11/12 01:43:43;;;;;;;2.43;2.00;;;;;;;;;;4826381;29;20193;-82
2023/11/12 01:46:48;;;;;;;3.60;2.37;;;;;;;;;;4826590;29;20193;-83
2023/11/12 01:49:52;;;;;;;4.03;2.20;;;;;;;;;;4815028;29;20193;-83
2023/11/12 01:52:57;;;;;;;3.53;2.47;;;;;;;;;;4826304;29;20244;-83
2023/11/12 01:56:07;;;;;;;2.70;2.23;;;;;;;;;;4816100;29;20193;-83
2023/11/12 01:59:14;;;;;;;5.27;2.50;;;;;;;;;;4816621;29;20193;-83
2023/11/12 02:02:19;;;;;;;2.20;2.00;;;;;;;;;;4826645;29;20228;-83
2023/11/12 02:05:23;;;;;;;3.20;2.20;;;;;;;;;;4826367;29;20193;-83
2023/11/12 02:08:28;;;;;;;2.83;2.10;;;;;;;;;;4816133;29;20193;-83
2023/11/12 02:11:32;;;;;;;3.20;2.20;;;;;;;;;;4814954;29;20233;-83
2023/11/12 02:14:37;;;;;;;2.23;2.03;;;;;;;;;;4816143;29;20220;-83
2023/11/12 02:17:46;;;;;;;3.23;2.43;;;;;;;;;;4816642;29;20196;-83
2023/11/12 02:20:51;;;;;;;3.53;2.53;;;;;;;;;;4825981;29;20196;-83
2023/11/12 02:23:55;;;;;;;4.60;2.27;;;;;;;;;;4825698;29;20193;-83
2023/11/12 02:27:00;;;;;;;4.23;2.07;;;;;;;;;;4826692;29;20197;-83
2023/11/12 02:30:08;;;;;;;5.50;2.10;;;;;;;;;;4815660;29;20193;-83
2023/11/12 02:33:12;;;;;;;3.73;1.90;;;;;;;;;;4816813;29;20228;-83
2023/11/12 02:36:17;;;;;;;5.20;2.27;;;;;;;;;;4825223;29;20192;-83
2023/11/12 02:39:22;;;;;;;2.50;2.10;;;;;;;;;;4825722;29;20189;-82
2023/11/12 02:42:29;;;;;;;2.50;2.17;;;;;;;;;;4822650;29;20229;-84
2023/11/12 02:45:33;;;;;;;3.13;2.33;;;;;;;;;;4820073;29;20189;-83
2023/11/12 02:49:03;;;;;;;2.67;2.20;;;;;;;;;;4819961;29;20647;-84
2023/11/12 02:52:07;;;;;;;2.50;2.23;;;;;;;;;;4822176;29;20216;-83
2023/11/12 02:55:11;;;;;;;3.27;2.50;;;;;;;;;;4825486;29;20221;-83
2023/11/12 02:58:16;;;;;;;3.47;2.00;;;;;;;;;;4814052;29;20193;-83
2023/11/12 03:01:20;;;;;;;8.37;2.67;;;;;;;;;;4814048;29;20193;-83
2023/11/12 03:04:25;;;;;;;3.23;2.40;;;;;;;;;;4814847;29;20192;-83
2023/11/12 03:07:29;;;;;;;3.37;2.23;;;;;;;;;;4815112;29;20536;-83
2023/11/12 03:10:33;;;;;;;4.23;2.63;;;;;;;;;;4814583;29;20200;-83
2023/11/12 03:13:38;;;;;;;3.90;2.40;;;;;;;;;;4814695;29;20189;-83
2023/11/12 03:16:42;;;;;;;3.60;2.47;;;;;;;;;;4815726;29;20197;-83
2023/11/12 03:19:48;;;;;;;3.90;2.40;;;;;;;;;;4824612;29;20189;-83
2023/11/12 03:22:53;;;;;;;3.77;2.50;;;;;;;;;;4824820;29;20225;-82
2023/11/12 03:25:57;;;;;;;4.00;2.50;;;;;;;;;;4814455;29;20189;-83
2023/11/12 03:29:04;;;;;;;3.67;2.20;;;;;;;;;;4814585;29;20193;-83
2023/11/12 03:32:08;;;;;;;8.27;2.40;;;;;;;;;;4824382;29;20571;-83
2023/11/12 03:35:13;;;;;;;3.17;2.27;;;;;;;;;;4803550;29;20222;-83
2023/11/12 03:38:17;;;;;;;3.93;2.30;;;;;;;;;;4825895;29;20193;-83
2023/11/12 03:41:21;;;;;;;6.33;2.60;;;;;;;;;;4815045;29;20193;-83
2023/11/12 03:44:26;;;;;;;3.83;2.57;;;;;;;;;;4815055;29;20189;-83
2023/11/12 03:47:30;;;;;;;2.83;2.47;;;;;;;;;;4813857;29;20193;-83
2023/11/12 03:50:34;;;;;;;7.73;2.53;;;;;;;;;;4814850;29;20193;-83
2023/11/12 03:53:39;;;;;;;3.17;2.37;;;;;;;;;;4815926;29;20568;-83
2023/11/12 03:56:43;;;;;;;4.33;2.67;;;;;;;;;;4825495;29;20551;-83
2023/11/12 03:59:51;;;;;;;2.97;2.70;;;;;;;;;;4815324;29;21092;-83
2023/11/12 04:02:56;;;;;;;3.57;2.63;;;;;;;;;;4814283;29;20228;-82
2023/11/12 04:06:01;;;;;;;3.27;2.50;;;;;;;;;;4826059;29;20185;-82
2023/11/12 04:09:06;;;;;;;3.90;2.60;;;;;;;;;;4816067;29;20189;-83
2023/11/12 04:12:11;;;;;;;3.20;2.83;;;;;;;;;;4827146;29;20626;-83
2023/11/12 04:15:16;;;;;;;3.30;2.50;;;;;;;;;;4818615;29;20706;-82
2023/11/12 04:18:20;;;;;;;5.93;2.57;;;;;;;;;;4818969;29;20546;-83
2023/11/12 04:21:24;;;;;;;3.83;2.60;;;;;;;;;;4818516;29;20189;-83
2023/11/12 04:24:29;;;;;;;4.40;2.20;;;;;;;;;;4817384;29;20562;-83
2023/11/12 04:27:33;;;;;;;4.30;2.43;;;;;;;;;;4826852;29;20555;-83
2023/11/12 04:30:37;;;;;;;2.57;2.30;;;;;;;;;;4828033;29;20554;-83
2023/11/12 04:33:42;;;;;;;4.27;2.20;;;;;;;;;;4827706;29;20647;-83
2023/11/12 04:36:47;;;;;;;3.50;2.30;;;;;;;;;;4826812;29;20181;-83
2023/11/12 04:39:51;;;;;;;3.50;2.37;;;;;;;;;;4816517;29;20197;-83
2023/11/12 04:42:56;;;;;;;2.90;2.60;;;;;;;;;;4827044;29;20228;-83
2023/11/12 04:46:00;;;;;;;4.87;2.27;;;;;;;;;;4827309;29;20894;-82
2023/11/12 04:49:04;;;;;;;2.67;2.47;;;;;;;;;;4827861;29;20551;-82
2023/11/12 04:52:09;;;;;;;2.97;2.40;;;;;;;;;;4817544;29;20638;-82
2023/11/12 04:55:13;;;;;;;5.97;2.67;;;;;;;;;;4818464;29;20614;-83
2023/11/12 04:58:17;;;;;;;5.37;2.73;;;;;;;;;;4817556;29;20555;-83
2023/11/12 05:01:22;;;;;;;2.67;2.47;;;;;;;;;;4817037;29;20551;-83
2023/11/12 05:04:26;;;;;;;4.27;2.77;;;;;;;;;;4818226;29;20555;-83
2023/11/12 05:07:31;;;;;;;2.90;2.50;;;;;;;;;;4817835;29;20882;-83
2023/11/12 05:10:35;;;;;;;3.70;2.90;;;;;;;;;;4808066;29;20562;-83
2023/11/12 05:13:40;;;;;;;4.13;2.60;;;;;;;;;;4819570;29;20551;-83
2023/11/12 05:16:43;;;;;;;4.03;2.70;;;;;;;;;;4817165;29;20879;-83
2023/11/12 05:19:48;;;;;;;5.77;2.43;;;;;;;;;;4816724;29;20547;-83
2023/11/12 05:22:52;;;;;;;11.23;3.17;;;;;;;;;;4818919;29;20630;-83
2023/11/12 05:25:59;;;;;;;5.03;2.70;;;;;;;;;;4817418;29;20555;-83
2023/11/12 05:29:04;;;;;;;5.00;2.80;;;;;;;;;;4818129;29;20547;-83
2023/11/12 05:32:09;;;;;;;3.73;2.50;;;;;;;;;;4827997;29;20630;-83
2023/11/12 05:35:13;;;;;;;3.60;2.57;;;;;;;;;;4817858;29;20606;-83
2023/11/12 05:38:17;;;;;;;4.07;2.60;;;;;;;;;;4818121;29;20546;-83
2023/11/12 05:41:21;;;;;;;3.93;2.87;;;;;;;;;;4817159;29;20554;-83
2023/11/12 05:44:26;;;;;;;4.30;2.40;;;;;;;;;;4827160;29;20547;-83
2023/11/12 05:47:30;;;;;;;3.33;2.40;;;;;;;;;;4817206;29;20543;-83
2023/11/12 05:50:35;;;;;;;3.77;2.90;;;;;;;;;;4816648;29;20550;-83
2023/11/12 05:53:41;;;;;;;4.87;2.57;;;;;;;;;;4818119;29;20668;-83
2023/11/12 05:56:45;;;;;;;3.77;2.97;;;;;;;;;;4816196;29;20539;-83
2023/11/12 05:59:50;;;;;;;5.03;3.43;;;;;;;;;;4806220;29;20550;-83
2023/11/12 06:02:55;;;;;;;3.77;3.10;;;;;;;;;;4817704;29;20630;-83
2023/11/12 06:05:59;;;;;;;4.63;3.40;;;;;;;;;;4816922;29;20551;-83
2023/11/12 06:09:03;;;;;;;5.10;3.27;;;;;;;;;;4817269;29;20559;-83
2023/11/12 06:12:08;;;;;;;4.47;3.30;;;;;;;;;;4817450;29;20968;-83
2023/11/12 06:15:12;;;;;;;4.37;3.30;;;;;;;;;;4815965;29;20606;-83
2023/11/12 06:18:16;;;;;;;4.93;3.17;;;;;;;;;;4816268;29;20563;-83
2023/11/12 06:21:21;;;;;;;7.37;3.20;;;;;;;;;;4817720;29;20886;-83
2023/11/12 06:24:25;;;;;;;5.80;3.60;;;;;;;;;;4816856;29;20562;-83
2023/11/12 06:27:29;;;;;;;6.80;4.17;;;;;;;;;;4815652;29;21084;-83
2023/11/12 06:30:33;;;;;;;7.73;3.60;;;;;;;;;;4816147;29;20547;-83
2023/11/12 06:33:39;;;;;;;5.77;3.47;;;;;;;;;;4816960;29;20551;-83
2023/11/12 06:36:43;;;;;;;10.60;5.33;;;;;;;;;;4827500;29;20595;-83
2023/11/12 06:39:47;;;;;;;11.67;6.67;;;;;;;;;;4816179;29;20546;-83
2023/11/12 06:42:52;;;;;;;7.67;5.13;;;;;;;;;;4817574;29;21191;-83
2023/11/12 06:45:56;;;;;;;5.50;4.53;;;;;;;;;;4817724;29;20539;-83
2023/11/12 06:49:01;;;;;;;6.13;4.87;;;;;;;;;;4817407;29;20555;-83
2023/11/12 06:52:05;;;;;;;5.93;4.17;;;;;;;;;;4815948;29;20638;-83
2023/11/12 06:55:09;;;;;;;7.50;4.27;;;;;;;;;;4816041;29;20618;-83
2023/11/12 06:58:14;;;;;;;5.33;3.60;;;;;;;;;;4826460;29;20547;-83
2023/11/12 07:01:18;;;;;;;4.67;3.60;;;;;;;;;;4817129;29;20550;-83
2023/11/12 07:04:22;;;;;;;11.80;7.80;;;;;;;;;;4817362;29;20562;-83
2023/11/12 07:07:27;;;;;;;8.13;5.20;;;;;;;;;;4816706;29;20547;-83
2023/11/12 07:10:31;;;;;;;8.13;5.10;;;;;;;;;;4826262;29;20563;-83
2023/11/12 07:13:36;;;;;;;6.30;4.70;;;;;;;;;;4816353;29;20559;-83
2023/11/12 07:16:40;;;;;;;10.13;5.03;;;;;;;;;;4817188;29;20603;-84
2023/11/12 07:19:45;;;;;;;4.73;4.20;;;;;;;;;;4817346;29;20554;-83
2023/11/12 07:22:49;;;;;;;5.23;4.17;;;;;;;;;;4825528;29;20625;-83
2023/11/12 07:25:54;;;;;;;6.40;4.63;;;;;;;;;;4814683;29;20922;-83
2023/11/12 07:28:58;;;;;;;6.57;5.83;;;;;;;;;;4815187;29;21123;-83
2023/11/12 07:32:03;;;;;;;9.03;5.70;;;;;;;;;;4815217;29;20630;-83
2023/11/12 07:35:08;;;;;;;12.90;9.30;;;;;;;;;;4814032;29;20599;-84
2023/11/12 07:38:12;;;;;;;9.77;7.70;;;;;;;;;;4821739;29;21117;-84
2023/11/12 07:41:16;;;;;;;9.30;8.03;;;;;;;;;;4812180;29;20559;-84
2023/11/12 07:44:20;;;;;;;10.40;7.93;;;;;;;;;;4815580;29;20538;-84
2023/11/12 07:47:25;;;;;;;8.77;7.13;;;;;;;;;;4814437;29;20566;-84
2023/11/12 07:50:29;;;;;;;6.10;5.43;;;;;;;;;;4815409;29;20543;-84
2023/11/12 07:58:30;;;;;;;8.23;6.30;;;;;;;;;;4868789;29;20223;-84
2023/11/12 08:06:58;;;;;;;9.33;7.13;;;;;;;;;;4857971;29;20540;-84
2023/11/12 08:10:08;;;;;;;10.33;7.37;;;;;;;;;;4857271;29;20183;-84
2023/11/12 08:13:34;;;;;;;8.43;6.83;;;;;;;;;;4913068;23;20732;-84
2023/11/12 08:16:42;;;;;;;7.60;6.23;;;;;;;;;;4836615;29;20223;-84
2023/11/12 08:19:46;;;;;;;7.97;6.37;;;;;;;;;;4849281;29;20184;-84
2023/11/12 08:22:50;;;;;;;11.40;6.97;;;;;;;;;;4844341;29;20224;-83
2023/11/12 08:25:54;;;;;;;7.47;5.93;;;;;;;;;;4837878;29;20192;-83
2023/11/12 08:28:58;;;;;;;8.87;6.30;;;;;;;;;;4830841;29;20188;-83
2023/11/12 08:32:03;;;;;;;7.23;5.47;;;;;;;;;;4834371;29;20223;-83
2023/11/12 08:35:07;;;;;;;5.47;4.73;;;;;;;;;;4843599;29;20197;-84
2023/11/12 08:38:12;;;;;;;7.87;5.10;;;;;;;;;;4843368;29;20185;-83
2023/11/12 08:41:16;;;;;;;5.17;4.10;;;;;;;;;;4843076;29;20192;-83
2023/11/12 08:44:21;;;;;;;6.73;4.13;;;;;;;;;;4840605;29;20196;-83
2023/11/12 08:47:25;;;;;;;4.20;3.23;;;;;;;;;;4829991;29;20500;-83
2023/11/12 08:50:29;;;;;;;5.27;3.00;;;;;;;;;;4827310;29;20196;-83
2023/11/12 08:53:36;;;;;;;4.40;3.20;;;;;;;;;;4836728;29;20193;-88
2023/11/12 08:56:41;;;;;;;3.57;2.70;;;;;;;;;;4828185;29;20220;-84
2023/11/12 08:59:46;;;;;;;3.40;2.93;;;;;;;;;;4827101;29;20196;-86
2023/11/12 09:02:50;;;;;;;3.83;2.60;;;;;;;;;;4837295;29;20223;-86
2023/11/12 09:05:54;;;;;;;2.93;2.40;;;;;;;;;;4837722;29;20627;-85
2023/11/12 09:08:59;;;;;;;2.23;2.03;;;;;;;;;;4827537;29;20192;-85
2023/11/12 09:12:04;;;;;;;5.53;2.93;;;;;;;;;;4827238;29;20578;-85
2023/11/12 09:15:09;;;;;;;3.60;2.20;;;;;;;;;;4837007;29;20701;-85
2023/11/12 09:18:14;;;;;;;7.60;5.43;;;;;;;;;;4826315;29;20192;-85
2023/11/12 09:21:19;;;;;;;9.57;6.90;;;;;;;;;;4826091;29;20196;-85
2023/11/12 09:24:23;;;;;;;4.33;3.03;;;;;;;;;;4837037;29;20197;-85
2023/11/12 09:27:27;;;;;;;6.57;2.90;;;;;;;;;;4828432;29;20647;-84
2023/11/12 09:30:34;;;;;;;3.57;2.20;;;;;;;;;;4838250;29;20196;-84
2023/11/12 09:33:39;;;;;;;3.03;2.60;;;;;;;;;;4829913;29;20200;-85
2023/11/12 09:36:43;;;;;;;4.53;2.30;;;;;;;;;;4829622;29;20220;-85
2023/11/12 09:39:47;;;;;;;4.97;2.17;;;;;;;;;;4829358;29;20200;-84
2023/11/12 09:42:53;;;;;;;2.67;2.43;;;;;;;;;;4828873;29;20706;-85
2023/11/12 09:45:57;;;;;;;3.13;2.30;;;;;;;;;;4837807;29;20188;-84
2023/11/12 09:49:04;;;;;;;4.53;2.17;;;;;;;;;;4828315;29;20540;-84
2023/11/12 09:52:08;;;;;;;4.00;2.10;;;;;;;;;;4829108;29;20232;-84
2023/11/12 09:55:15;;;;;;;3.07;1.97;;;;;;;;;;4828513;29;20642;-84
2023/11/12 09:58:19;;;;;;;3.60;2.23;;;;;;;;;;4817068;29;20185;-85
2023/11/12 10:01:24;;;;;;;2.37;2.17;;;;;;;;;;4837383;29;20196;-85
2023/11/12 10:04:28;;;;;;;4.83;1.70;;;;;;;;;;4827683;29;20196;-85
2023/11/12 10:07:33;;;;;;;2.37;1.53;;;;;;;;;;4816347;29;20192;-85
2023/11/12 10:10:37;;;;;;;4.30;1.40;;;;;;;;;;4826885;29;20188;-84
2023/11/12 10:13:42;;;;;;;2.77;1.50;;;;;;;;;;4838057;29;20192;-84
2023/11/12 10:16:46;;;;;;;1.83;1.40;;;;;;;;;;4826682;29;20220;-84
2023/11/12 10:19:59;;;;;;;4.33;2.57;;;;;;;;;;4827880;29;20192;-85
2023/11/12 10:23:03;;;;;;;2.43;1.10;;;;;;;;;;4828260;29;20690;-85
2023/11/12 10:26:13;;;;;;;4.93;2.77;;;;;;;;;;4836958;29;20192;-84
2023/11/12 10:29:23;;;;;;;3.33;1.70;;;;;;;;;;4838388;29;20189;-84
2023/11/12 10:32:28;;;;;;;2.20;1.27;;;;;;;;;;4828476;29;20223;-85
2023/11/12 10:35:32;;;;;;;2.60;1.30;;;;;;;;;;4836210;29;20646;-83
2023/11/12 10:38:49;;;;;;;2.60;1.30;;;;;;;;;;4827555;29;20192;-84
2023/11/12 10:41:58;;;;;;;2.23;1.60;;;;;;;;;;4827117;29;20228;-84
2023/11/12 10:45:02;;;;;;;2.90;1.70;;;;;;;;;;4826737;29;20650;-85
2023/11/12 10:48:10;;;;;;;3.73;1.63;;;;;;;;;;4836837;29;20642;-84
2023/11/12 10:51:16;;;;;;;3.20;1.63;;;;;;;;;;4826675;29;20196;-84
2023/11/12 10:54:20;;;;;;;2.07;1.50;;;;;;;;;;4828185;29;20196;-84
2023/11/12 10:57:25;;;;;;;1.90;1.37;;;;;;;;;;4837648;29;20567;-84
2023/11/12 11:00:31;;;;;;;3.60;2.07;;;;;;;;;;4837530;29;20193;-84
2023/11/12 11:03:35;;;;;;;2.63;1.70;;;;;;;;;;4828308;29;20196;-84
2023/11/12 11:06:41;;;;;;;3.03;1.70;;;;;;;;;;4837581;29;20184;-84
2023/11/12 11:09:45;;;;;;;65.03;38.43;;;;;;;;;;4828021;29;20200;-84
2023/11/12 11:12:49;;;;;;;9.47;7.17;;;;;;;;;;4827769;29;20235;-84
2023/11/12 11:15:55;;;;;;;1.80;1.30;;;;;;;;;;4827554;29;20188;-84
2023/11/12 11:18:59;;;;;;;3.40;2.50;;;;;;;;;;4831592;29;20540;-84
2023/11/12 11:22:32;;;;;;;2.70;1.73;;;;;;;;;;4831274;29;20227;-81
2023/11/12 11:25:36;;;;;;;2.40;1.50;;;;;;;;;;4829834;29;20541;-84
2023/11/12 11:28:40;;;;;;;3.93;3.50;;;;;;;;;;4830352;29;20192;-84
2023/11/12 11:31:47;;;;;;;3.57;3.17;;;;;;;;;;4841001;29;20231;-84
2023/11/12 11:34:52;;;;;;;5.10;4.70;;;;;;;;;;4840837;29;20196;-84
2023/11/12 11:38:05;;;;;;;5.73;4.70;;;;;;;;;;4831035;29;20678;-84
2023/11/12 11:41:10;;;;;;;4.40;3.20;;;;;;;;;;4830309;29;20196;-84
2023/11/12 11:44:37;;;;;;;8.00;7.20;;;;;;;;;;4840000;29;20188;-84
2023/11/12 11:48:05;;;;;;;11.97;9.60;;;;;;;;;;4829983;29;20647;-84
2023/11/12 11:51:27;;;;;;;4.97;4.50;;;;;;;;;;4829276;29;20187;-85
2023/11/12 11:54:35;;;;;;;5.80;3.40;;;;;;;;;;4829830;29;20189;-84
2023/11/12 11:57:47;;;;;;;7.47;2.93;;;;;;;;;;4829876;29;20228;-84
2023/11/12 12:00:59;;;;;;;3.70;2.10;;;;;;;;;;4829391;29;20192;-84
2023/11/12 12:04:06;;;;;;;4.67;1.80;;;;;;;;;;4829568;29;20196;-82
2023/11/12 12:07:17;;;;;;;2.67;1.90;;;;;;;;;;4840276;29;20196;-84
2023/11/12 12:10:26;;;;;;;15.33;8.00;;;;;;;;;;4830864;29;20528;-84
2023/11/12 12:13:30;;;;;;;8.23;4.60;;;;;;;;;;4828881;29;20224;-82
2023/11/12 12:16:35;;;;;;;21.33;12.53;;;;;;;;;;4828403;29;20212;-85
2023/11/12 12:19:39;;;;;;;5.77;2.83;;;;;;;;;;4840438;29;20203;-84
2023/11/12 12:22:43;;;;;;;51.70;24.17;;;;;;;;;;4829354;29;20228;-84
2023/11/12 12:25:51;;;;;;;46.13;25.33;;;;;;;;;;4830152;29;20558;-84
2023/11/12 12:28:55;;;;;;;8.27;4.60;;;;;;;;;;4839815;29;20195;-84
2023/11/12 12:32:12;;;;;;;5.07;3.60;;;;;;;;;;4829896;29;20231;-84
2023/11/12 12:35:23;;;;;;;14.43;11.33;;;;;;;;;;4829519;29;20188;-84
2023/11/12 12:38:27;;;;;;;12.43;9.87;;;;;;;;;;4830240;29;20217;-84
2023/11/12 12:41:31;;;;;;;3.60;3.30;;;;;;;;;;4830292;29;20223;-84
2023/11/12 12:44:35;;;;;;;2.80;1.83;;;;;;;;;;4829845;29;20196;-84
2023/11/12 12:47:42;;;;;;;10.37;7.97;;;;;;;;;;4829466;29;20196;-84
2023/11/12 12:50:57;;;;;;;4.00;2.90;;;;;;;;;;4829552;29;20188;-84
2023/11/12 12:54:04;;;;;;;5.17;3.17;;;;;;;;;;4829759;29;20185;-84
2023/11/12 12:57:09;;;;;;;4.73;4.17;;;;;;;;;;4829374;29;20220;-84
2023/11/12 13:00:14;;;;;;;5.37;2.67;;;;;;;;;;4830713;29;20524;-84
2023/11/12 13:03:30;;;;;;;5.57;3.63;;;;;;;;;;4830267;29;20232;-84
2023/11/12 13:06:37;;;;;;;9.07;5.50;;;;;;;;;;4830649;29;20189;-84
2023/11/12 13:09:42;;;;;;;5.27;2.60;;;;;;;;;;4829318;29;20630;-84
2023/11/12 13:12:51;;;;;;;4.10;3.47;;;;;;;;;;4829010;29;20575;-84
2023/11/12 13:15:55;;;;;;;3.77;2.33;;;;;;;;;;4839823;29;20184;-84
2023/11/12 13:19:00;;;;;;;4.67;3.07;;;;;;;;;;4830169;29;20192;-84
2023/11/12 13:22:06;;;;;;;3.53;2.90;;;;;;;;;;4829024;29;20228;-84
2023/11/12 13:25:12;;;;;;;2.63;2.20;;;;;;;;;;4838747;29;20196;-84
2023/11/12 13:28:16;;;;;;;7.63;6.73;;;;;;;;;;4829676;29;20192;-84
2023/11/12 13:31:23;;;;;;;5.43;4.27;;;;;;;;;;4839894;29;20197;-84
2023/11/12 13:34:27;;;;;;;3.80;2.83;;;;;;;;;;4828592;29;20196;-86
2023/11/12 13:37:31;;;;;;;3.93;1.90;;;;;;;;;;4835314;29;20215;-87
2023/11/12 13:40:39;;;;;;;2.20;1.10;;;;;;;;;;4825713;29;20551;-87
2023/11/12 13:43:43;;;;;;;38.73;25.30;;;;;;;;;;4825183;29;20196;-86
2023/11/12 13:46:50;;;;;;;6.53;4.37;;;;;;;;;;4814895;29;20188;-86
2023/11/12 13:49:55;;;;;;;6.47;3.50;;;;;;;;;;4824796;29;20192;-86
2023/11/12 13:53:00;;;;;;;5.70;3.77;;;;;;;;;;4814226;29;20223;-87
2023/11/12 13:56:06;;;;;;;21.13;13.07;;;;;;;;;;4825765;29;20196;-87
2023/11/12 13:59:12;;;;;;;19.97;13.60;;;;;;;;;;4825280;29;20551;-87
2023/11/12 14:02:16;;;;;;;4.57;2.90;;;;;;;;;;4824753;29;20237;-86
2023/11/12 14:05:26;;;;;;;2.03;1.30;;;;;;;;;;4825519;29;20200;-86
2023/11/12 14:08:30;;;;;;;2.23;1.10;;;;;;;;;;4825081;29;20185;-86
2023/11/12 14:11:36;;;;;;;2.10;0.80;;;;;;;;;;4835337;29;20232;-86
2023/11/12 14:14:40;;;;;;;3.43;1.30;;;;;;;;;;4813897;29;20220;-86
2023/11/12 14:17:45;;;;;;;1.50;0.90;;;;;;;;;;4825366;29;20228;-86
2023/11/12 14:20:49;;;;;;;1.33;0.90;;;;;;;;;;4825592;29;20196;-87
2023/11/12 14:23:54;;;;;;;2.10;0.80;;;;;;;;;;4825060;29;20195;-87
2023/11/12 14:26:58;;;;;;;2.53;0.90;;;;;;;;;;4835068;29;20192;-86
2023/11/12 14:30:06;;;;;;;1.47;0.90;;;;;;;;;;4813879;29;20196;-86
2023/11/12 14:33:11;;;;;;;1.27;0.90;;;;;;;;;;4825255;29;20714;-86
2023/11/12 14:36:15;;;;;;;2.37;0.80;;;;;;;;;;4824318;29;20543;-86
2023/11/12 14:39:22;;;;;;;1.53;0.73;;;;;;;;;;4824214;29;20180;-86
2023/11/12 14:42:29;;;;;;;1.80;0.70;;;;;;;;;;4834493;29;20721;-86
2023/11/12 14:45:36;;;;;;;4.63;1.23;;;;;;;;;;4825037;29;20196;-87
2023/11/12 14:48:39;;;;;;;1.83;0.70;;;;;;;;;;4835272;29;20197;-87
2023/11/12 14:51:47;;;;;;;0.87;0.67;;;;;;;;;;4825204;29;20232;-87
2023/11/12 14:54:51;;;;;;;2.43;0.80;;;;;;;;;;4835878;29;20200;-87
2023/11/12 14:57:55;;;;;;;1.10;0.70;;;;;;;;;;4824622;29;20224;-87
2023/11/12 15:00:59;;;;;;;3.03;0.83;;;;;;;;;;4825952;29;20661;-87
2023/11/12 15:04:04;;;;;;;1.60;0.60;;;;;;;;;;4835873;29;20188;-87
2023/11/12 15:07:09;;;;;;;1.83;1.30;;;;;;;;;;4825697;29;20192;-86
2023/11/12 15:10:13;;;;;;;1.43;0.80;;;;;;;;;;4825647;29;20193;-84
2023/11/12 15:13:17;;;;;;;1.80;0.90;;;;;;;;;;4840298;29;20236;-86
2023/11/12 15:16:25;;;;;;;1.53;0.80;;;;;;;;;;4838683;29;20188;-86
2023/11/12 15:19:31;;;;;;;2.67;1.00;;;;;;;;;;4818136;29;20184;-86
2023/11/12 15:22:36;;;;;;;1.60;0.90;;;;;;;;;;4828150;29;20584;-86
2023/11/12 15:25:40;;;;;;;1.57;0.90;;;;;;;;;;4839072;29;20196;-86
2023/11/12 15:28:44;;;;;;;2.50;1.00;;;;;;;;;;4828812;29;20192;-86
2023/11/12 15:31:49;;;;;;;2.37;1.03;;;;;;;;;;4828039;29;20236;-86
2023/11/12 15:34:53;;;;;;;1.47;1.20;;;;;;;;;;4831295;29;20200;-84
2023/11/12 15:37:57;;;;;;;1.07;0.97;;;;;;;;;;4829922;29;20215;-83
2023/11/12 15:41:02;;;;;;;5.13;1.10;;;;;;;;;;4836983;29;20188;-83
2023/11/12 15:44:07;;;;;;;3.17;1.23;;;;;;;;;;4830077;29;20646;-86
2023/11/12 15:47:11;;;;;;;1.43;0.90;;;;;;;;;;4818171;29;20196;-86
2023/11/12 15:50:16;;;;;;;2.20;0.87;;;;;;;;;;4826483;29;20192;-86
2023/11/12 15:53:24;;;;;;;2.53;1.23;;;;;;;;;;4826498;29;20236;-86
2023/11/12 15:56:30;;;;;;;2.13;0.90;;;;;;;;;;4824885;29;20201;-86
2023/11/12 15:59:34;;;;;;;3.40;1.17;;;;;;;;;;4825582;29;20216;-86
2023/11/12 16:02:42;;;;;;;2.60;1.20;;;;;;;;;;4825037;29;20232;-86
2023/11/12 16:05:47;;;;;;;1.20;0.90;;;;;;;;;;4828083;29;20643;-86
2023/11/12 16:08:51;;;;;;;1.60;1.13;;;;;;;;;;4828467;29;20189;-86
2023/11/12 16:11:55;;;;;;;2.17;1.20;;;;;;;;;;4838486;29;20227;-86
2023/11/12 16:15:01;;;;;;;1.90;1.00;;;;;;;;;;4838624;29;20216;-86
2023/11/12 16:18:06;;;;;;;2.37;1.40;;;;;;;;;;4831741;29;20220;-83
2023/11/12 16:21:11;;;;;;;1.37;1.10;;;;;;;;;;4843648;29;20196;-84
2023/11/12 16:24:15;;;;;;;2.07;1.60;;;;;;;;;;4833123;29;20196;-83
2023/11/12 16:27:21;;;;;;;2.33;1.17;;;;;;;;;;4833429;29;20196;-87
2023/11/12 16:30:26;;;;;;;4.13;1.40;;;;;;;;;;4826567;29;20188;-86
2023/11/12 16:33:30;;;;;;;2.93;1.50;;;;;;;;;;4825932;29;20228;-86
2023/11/12 16:36:34;;;;;;;3.90;1.43;;;;;;;;;;4826996;29;20192;-86
2023/11/12 16:39:47;;;;;;;2.70;1.60;;;;;;;;;;4826139;29;20327;-86
2023/11/12 16:42:51;;;;;;;3.13;1.80;;;;;;;;;;4826075;29;20595;-86
2023/11/12 16:45:57;;;;;;;3.20;2.43;;;;;;;;;;4826097;29;20188;-86
2023/11/12 16:49:02;;;;;;;4.93;2.50;;;;;;;;;;4826970;29;20638;-86
2023/11/12 16:52:08;;;;;;;2.63;1.90;;;;;;;;;;4826272;29;20228;-86
2023/11/12 16:55:12;;;;;;;2.20;1.90;;;;;;;;;;4826091;29;20668;-86
2023/11/12 16:58:16;;;;;;;3.23;2.20;;;;;;;;;;4836516;29;20224;-86
2023/11/12 17:01:21;;;;;;;2.60;2.07;;;;;;;;;;4837537;29;20196;-86
2023/11/12 17:04:26;;;;;;;2.30;1.93;;;;;;;;;;4828214;29;20196;-84
2023/11/12 17:07:31;;;;;;;2.93;2.40;;;;;;;;;;4827229;29;20188;-86
2023/11/12 17:10:35;;;;;;;3.93;2.20;;;;;;;;;;4827899;29;20643;-85
2023/11/12 17:13:39;;;;;;;3.23;2.00;;;;;;;;;;4831237;29;20212;-85
2023/11/12 17:16:47;;;;;;;3.30;1.70;;;;;;;;;;4830539;29;20188;-85
2023/11/12 17:19:53;;;;;;;3.60;1.93;;;;;;;;;;4830904;29;20216;-84
2023/11/12 17:22:57;;;;;;;3.50;2.07;;;;;;;;;;4840028;29;20232;-85
2023/11/12 17:26:04;;;;;;;3.13;1.83;;;;;;;;;;4840494;29;20196;-85
2023/11/12 17:29:09;;;;;;;2.40;2.10;;;;;;;;;;4840828;29;20185;-84
2023/11/12 17:32:15;;;;;;;4.47;1.77;;;;;;;;;;4831011;29;20224;-85
2023/11/12 17:35:19;;;;;;;2.97;1.90;;;;;;;;;;4840033;29;20192;-84
2023/11/12 17:38:27;;;;;;;2.27;1.60;;;;;;;;;;4829787;29;20701;-85
2023/11/12 17:41:32;;;;;;;2.20;1.40;;;;;;;;;;4827462;29;20227;-86
2023/11/12 17:44:37;;;;;;;2.13;1.60;;;;;;;;;;4826997;29;20216;-85
2023/11/12 17:47:41;;;;;;;1.70;1.60;;;;;;;;;;4826257;29;20534;-85
2023/11/12 17:50:45;;;;;;;1.40;1.20;;;;;;;;;;4827476;29;20188;-86
2023/11/12 17:53:49;;;;;;;2.23;1.30;;;;;;;;;;4827086;29;20299;-86
2023/11/12 17:56:53;;;;;;;1.20;1.10;;;;;;;;;;4836867;29;20654;-85
2023/11/12 17:59:58;;;;;;;2.20;1.23;;;;;;;;;;4827249;29;20220;-85
2023/11/12 18:03:02;;;;;;;3.00;1.10;;;;;;;;;;4826750;29;20231;-86
2023/11/12 18:06:07;;;;;;;1.07;0.97;;;;;;;;;;4837207;29;20188;-86
2023/11/12 18:09:15;;;;;;;2.63;1.20;;;;;;;;;;4837045;29;20188;-85
2023/11/12 18:12:19;;;;;;;1.40;1.00;;;;;;;;;;4827379;29;20232;-85
2023/11/12 18:15:23;;;;;;;1.77;1.27;;;;;;;;;;4837029;29;20563;-86
2023/11/12 18:18:30;;;;;;;2.80;1.30;;;;;;;;;;4827377;29;20563;-85
2023/11/12 18:21:34;;;;;;;1.30;0.97;;;;;;;;;;4836942;29;20575;-85
2023/11/12 18:24:38;;;;;;;1.70;1.20;;;;;;;;;;4837421;29;20196;-86
2023/11/12 18:27:42;;;;;;;1.80;1.20;;;;;;;;;;4826452;29;20188;-85
2023/11/12 18:30:46;;;;;;;1.60;1.10;;;;;;;;;;4827660;29;20189;-85
2023/11/12 18:33:50;;;;;;;2.27;0.90;;;;;;;;;;4828134;29;20192;-85
2023/11/12 18:36:55;;;;;;;4.90;0.97;;;;;;;;;;4826206;29;20196;-85
2023/11/12 18:39:59;;;;;;;1.60;1.00;;;;;;;;;;4836541;29;20682;-85
2023/11/12 18:43:06;;;;;;;3.07;0.93;;;;;;;;;;4836946;29;20236;-86